sensor_id;sensor_type;location;lat;lon;timestamp;temperature;humidity
21801;DHT22;11062;51.164;16.924;2022-09-03T00:00:18;35.90;33.20
21801;DHT22;11062;51.164;16.924;2022-09-03T00:05:32;35.60;33.10
21801;DHT22;11062;51.164;16.924;2022-09-03T00:08:06;35.60;33.20
21801;DHT22;11062;51.164;16.924;2022-09-03T00:10:58;35.50;33.20
21801;DHT22;11062;51.164;16.924;2022-09-03T00:13:34;35.50;33.20
21801;DHT22;11062;51.164;16.924;2022-09-03T00:16:04;35.50;33.20
21801;DHT22;11062;51.164;16.924;2022-09-03T00:18:54;35.40;33.30
21801;DHT22;11062;51.164;16.924;2022-09-03T00:21:43;35.20;33.20
21801;DHT22;11062;51.164;16.924;2022-09-03T00:24:12;35.20;33.10
21801;DHT22;11062;51.164;16.924;2022-09-03T00:26:46;35.20;33.20
21801;DHT22;11062;51.164;16.924;2022-09-03T00:29:26;35.30;33.10
21801;DHT22;11062;51.164;16.924;2022-09-03T00:32:02;35.10;33.00
21801;DHT22;11062;51.164;16.924;2022-09-03T00:34:33;35.30;33.10
21801;DHT22;11062;51.164;16.924;2022-09-03T00:37:00;35.20;32.90
21801;DHT22;11062;51.164;16.924;2022-09-03T00:39:27;35.60;32.80
21801;DHT22;11062;51.164;16.924;2022-09-03T00:45:32;36.20;32.10
21801;DHT22;11062;51.164;16.924;2022-09-03T00:48:05;36.40;32.00
21801;DHT22;11062;51.164;16.924;2022-09-03T00:53:32;36.50;31.70
21801;DHT22;11062;51.164;16.924;2022-09-03T00:59:29;36.70;31.50
21801;DHT22;11062;51.164;16.924;2022-09-03T01:07:42;36.80;31.50
21801;DHT22;11062;51.164;16.924;2022-09-03T01:10:43;36.80;31.40
21801;DHT22;11062;51.164;16.924;2022-09-03T01:13:29;36.80;31.30
21801;DHT22;11062;51.164;16.924;2022-09-03T01:27:48;36.90;31.40
21801;DHT22;11062;51.164;16.924;2022-09-03T01:30:20;36.80;31.30
21801;DHT22;11062;51.164;16.924;2022-09-03T01:33:30;36.80;31.50
21801;DHT22;11062;51.164;16.924;2022-09-03T01:36:02;36.80;31.30
21801;DHT22;11062;51.164;16.924;2022-09-03T01:38:45;36.70;31.50
21801;DHT22;11062;51.164;16.924;2022-09-03T01:41:47;36.70;31.50
21801;DHT22;11062;51.164;16.924;2022-09-03T01:50:18;36.60;31.40
21801;DHT22;11062;51.164;16.924;2022-09-03T01:53:43;36.50;31.40
21801;DHT22;11062;51.164;16.924;2022-09-03T01:58:48;36.50;31.50
21801;DHT22;11062;51.164;16.924;2022-09-03T02:01:23;36.40;31.70
21801;DHT22;11062;51.164;16.924;2022-09-03T02:03:52;36.30;31.70
21801;DHT22;11062;51.164;16.924;2022-09-03T02:06:26;36.20;31.70
21801;DHT22;11062;51.164;16.924;2022-09-03T02:08:52;36.10;31.80
21801;DHT22;11062;51.164;16.924;2022-09-03T02:11:19;36.10;31.80
21801;DHT22;11062;51.164;16.924;2022-09-03T02:13:51;36.00;31.80
21801;DHT22;11062;51.164;16.924;2022-09-03T02:16:23;36.00;31.90
21801;DHT22;11062;51.164;16.924;2022-09-03T02:18:53;36.00;31.80
21801;DHT22;11062;51.164;16.924;2022-09-03T02:21:22;35.90;31.90
21801;DHT22;11062;51.164;16.924;2022-09-03T02:23:49;35.90;31.90
21801;DHT22;11062;51.164;16.924;2022-09-03T02:26:19;35.80;31.90
21801;DHT22;11062;51.164;16.924;2022-09-03T02:28:46;35.80;31.90
21801;DHT22;11062;51.164;16.924;2022-09-03T02:31:12;35.80;32.10
21801;DHT22;11062;51.164;16.924;2022-09-03T02:33:41;35.70;32.00
21801;DHT22;11062;51.164;16.924;2022-09-03T02:36:11;35.70;32.10
21801;DHT22;11062;51.164;16.924;2022-09-03T02:38:39;35.60;32.00
21801;DHT22;11062;51.164;16.924;2022-09-03T02:41:09;35.50;32.10
21801;DHT22;11062;51.164;16.924;2022-09-03T02:46:35;35.50;32.10
21801;DHT22;11062;51.164;16.924;2022-09-03T02:49:03;35.50;32.10
21801;DHT22;11062;51.164;16.924;2022-09-03T02:51:37;35.50;32.30
21801;DHT22;11062;51.164;16.924;2022-09-03T02:54:04;35.50;32.30
21801;DHT22;11062;51.164;16.924;2022-09-03T02:56:30;35.40;32.30
21801;DHT22;11062;51.164;16.924;2022-09-03T02:58:56;35.40;32.40
21801;DHT22;11062;51.164;16.924;2022-09-03T03:01:23;35.20;32.50
21801;DHT22;11062;51.164;16.924;2022-09-03T03:03:49;35.20;32.50
21801;DHT22;11062;51.164;16.924;2022-09-03T03:06:15;35.30;32.60
21801;DHT22;11062;51.164;16.924;2022-09-03T03:08:45;35.30;32.40
21801;DHT22;11062;51.164;16.924;2022-09-03T03:11:12;35.30;32.40
21801;DHT22;11062;51.164;16.924;2022-09-03T03:13:40;35.30;32.40
21801;DHT22;11062;51.164;16.924;2022-09-03T03:16:06;35.30;32.40
21801;DHT22;11062;51.164;16.924;2022-09-03T03:18:32;35.30;32.40
21801;DHT22;11062;51.164;16.924;2022-09-03T03:21:09;35.30;32.40
21801;DHT22;11062;51.164;16.924;2022-09-03T03:23:37;35.30;32.50
21801;DHT22;11062;51.164;16.924;2022-09-03T03:26:05;35.10;32.50
21801;DHT22;11062;51.164;16.924;2022-09-03T03:28:32;35.00;32.60
21801;DHT22;11062;51.164;16.924;2022-09-03T03:31:08;34.90;32.70
21801;DHT22;11062;51.164;16.924;2022-09-03T03:33:35;34.80;32.80
21801;DHT22;11062;51.164;16.924;2022-09-03T03:36:09;34.70;32.80
21801;DHT22;11062;51.164;16.924;2022-09-03T03:38:36;34.90;32.90
21801;DHT22;11062;51.164;16.924;2022-09-03T03:41:15;34.90;32.80
21801;DHT22;11062;51.164;16.924;2022-09-03T03:43:43;34.90;32.80
21801;DHT22;11062;51.164;16.924;2022-09-03T03:46:09;34.90;32.80
21801;DHT22;11062;51.164;16.924;2022-09-03T03:48:37;34.90;32.80
21801;DHT22;11062;51.164;16.924;2022-09-03T03:51:05;34.90;32.80
21801;DHT22;11062;51.164;16.924;2022-09-03T03:53:36;34.90;32.80
21801;DHT22;11062;51.164;16.924;2022-09-03T03:56:05;34.90;32.90
21801;DHT22;11062;51.164;16.924;2022-09-03T03:58:32;34.80;32.70
21801;DHT22;11062;51.164;16.924;2022-09-03T04:01:07;34.80;32.80
21801;DHT22;11062;51.164;16.924;2022-09-03T04:03:37;34.80;32.80
21801;DHT22;11062;51.164;16.924;2022-09-03T04:06:03;34.80;32.90
21801;DHT22;11062;51.164;16.924;2022-09-03T04:08:33;34.70;32.80
21801;DHT22;11062;51.164;16.924;2022-09-03T04:11:01;34.70;32.70
21801;DHT22;11062;51.164;16.924;2022-09-03T04:13:30;34.60;32.80
21801;DHT22;11062;51.164;16.924;2022-09-03T04:16:05;34.70;32.90
21801;DHT22;11062;51.164;16.924;2022-09-03T04:18:32;34.70;32.90
21801;DHT22;11062;51.164;16.924;2022-09-03T04:21:00;34.60;32.80
21801;DHT22;11062;51.164;16.924;2022-09-03T04:23:29;34.60;32.80
21801;DHT22;11062;51.164;16.924;2022-09-03T04:25:55;34.60;32.80
21801;DHT22;11062;51.164;16.924;2022-09-03T04:28:21;34.60;32.80
21801;DHT22;11062;51.164;16.924;2022-09-03T04:30:47;34.50;32.80
21801;DHT22;11062;51.164;16.924;2022-09-03T04:33:13;34.50;32.80
21801;DHT22;11062;51.164;16.924;2022-09-03T04:35:39;34.50;32.90
21801;DHT22;11062;51.164;16.924;2022-09-03T04:38:06;34.40;32.80
21801;DHT22;11062;51.164;16.924;2022-09-03T04:40:34;34.40;32.90
21801;DHT22;11062;51.164;16.924;2022-09-03T04:43:00;34.30;33.10
21801;DHT22;11062;51.164;16.924;2022-09-03T04:45:26;34.30;33.00
21801;DHT22;11062;51.164;16.924;2022-09-03T04:47:57;34.30;33.10
21801;DHT22;11062;51.164;16.924;2022-09-03T04:50:24;34.30;33.20
21801;DHT22;11062;51.164;16.924;2022-09-03T04:52:53;34.30;33.40
21801;DHT22;11062;51.164;16.924;2022-09-03T04:55:22;34.20;33.40
21801;DHT22;11062;51.164;16.924;2022-09-03T04:57:48;34.10;33.60
21801;DHT22;11062;51.164;16.924;2022-09-03T05:00:15;34.00;33.70
21801;DHT22;11062;51.164;16.924;2022-09-03T05:02:51;34.10;33.70
21801;DHT22;11062;51.164;16.924;2022-09-03T05:05:18;34.30;33.60
21801;DHT22;11062;51.164;16.924;2022-09-03T05:07:44;34.20;33.70
21801;DHT22;11062;51.164;16.924;2022-09-03T05:10:12;34.30;33.70
21801;DHT22;11062;51.164;16.924;2022-09-03T05:12:56;34.40;33.70
21801;DHT22;11062;51.164;16.924;2022-09-03T05:15:22;34.50;33.80
21801;DHT22;11062;51.164;16.924;2022-09-03T05:17:48;34.50;34.00
21801;DHT22;11062;51.164;16.924;2022-09-03T05:20:17;34.70;33.90
21801;DHT22;11062;51.164;16.924;2022-09-03T05:22:43;34.70;33.70
21801;DHT22;11062;51.164;16.924;2022-09-03T05:25:09;34.80;33.60
21801;DHT22;11062;51.164;16.924;2022-09-03T05:27:38;34.70;34.00
21801;DHT22;11062;51.164;16.924;2022-09-03T05:30:04;34.70;33.90
21801;DHT22;11062;51.164;16.924;2022-09-03T05:32:33;34.80;34.00
21801;DHT22;11062;51.164;16.924;2022-09-03T05:34:59;34.90;33.80
21801;DHT22;11062;51.164;16.924;2022-09-03T05:37:25;35.00;33.80
21801;DHT22;11062;51.164;16.924;2022-09-03T05:39:51;35.10;33.40
21801;DHT22;11062;51.164;16.924;2022-09-03T05:42:17;35.10;33.40
21801;DHT22;11062;51.164;16.924;2022-09-03T05:44:46;35.20;33.10
21801;DHT22;11062;51.164;16.924;2022-09-03T05:47:14;35.30;33.40
21801;DHT22;11062;51.164;16.924;2022-09-03T05:49:41;35.30;33.20
21801;DHT22;11062;51.164;16.924;2022-09-03T05:52:07;35.20;33.20
21801;DHT22;11062;51.164;16.924;2022-09-03T05:54:34;35.20;33.10
21801;DHT22;11062;51.164;16.924;2022-09-03T05:57:00;35.30;32.90
21801;DHT22;11062;51.164;16.924;2022-09-03T05:59:26;35.40;32.80
21801;DHT22;11062;51.164;16.924;2022-09-03T06:01:52;35.50;32.60
21801;DHT22;11062;51.164;16.924;2022-09-03T06:04:18;35.70;32.80
21801;DHT22;11062;51.164;16.924;2022-09-03T06:06:45;35.70;32.60
21801;DHT22;11062;51.164;16.924;2022-09-03T06:09:20;35.80;32.80
21801;DHT22;11062;51.164;16.924;2022-09-03T06:11:47;35.80;32.80
21801;DHT22;11062;51.164;16.924;2022-09-03T06:14:14;35.90;32.90
21801;DHT22;11062;51.164;16.924;2022-09-03T06:16:45;36.00;32.70
21801;DHT22;11062;51.164;16.924;2022-09-03T06:19:14;35.90;32.50
21801;DHT22;11062;51.164;16.924;2022-09-03T06:21:45;35.80;32.30
21801;DHT22;11062;51.164;16.924;2022-09-03T06:24:17;35.90;32.40
21801;DHT22;11062;51.164;16.924;2022-09-03T06:26:44;35.90;32.50
21801;DHT22;11062;51.164;16.924;2022-09-03T06:29:11;36.00;32.30
21801;DHT22;11062;51.164;16.924;2022-09-03T06:31:37;36.00;31.90
21801;DHT22;11062;51.164;16.924;2022-09-03T06:34:04;36.00;32.10
21801;DHT22;11062;51.164;16.924;2022-09-03T06:36:31;36.10;32.20
21801;DHT22;11062;51.164;16.924;2022-09-03T06:38:57;36.10;32.20
21801;DHT22;11062;51.164;16.924;2022-09-03T06:41:31;36.10;32.20
21801;DHT22;11062;51.164;16.924;2022-09-03T06:44:08;36.30;31.90
21801;DHT22;11062;51.164;16.924;2022-09-03T06:46:39;36.40;31.70
21801;DHT22;11062;51.164;16.924;2022-09-03T06:49:07;36.50;31.70
21801;DHT22;11062;51.164;16.924;2022-09-03T06:51:33;36.60;31.70
21801;DHT22;11062;51.164;16.924;2022-09-03T06:54:01;36.70;31.80
21801;DHT22;11062;51.164;16.924;2022-09-03T06:56:27;36.80;31.90
21801;DHT22;11062;51.164;16.924;2022-09-03T06:58:57;36.90;31.60
21801;DHT22;11062;51.164;16.924;2022-09-03T07:01:36;37.00;31.60
21801;DHT22;11062;51.164;16.924;2022-09-03T07:04:07;37.10;31.50
21801;DHT22;11062;51.164;16.924;2022-09-03T07:06:35;37.10;31.50
21801;DHT22;11062;51.164;16.924;2022-09-03T07:09:02;37.10;31.10
21801;DHT22;11062;51.164;16.924;2022-09-03T07:11:29;37.10;31.40
21801;DHT22;11062;51.164;16.924;2022-09-03T07:13:56;37.20;31.10
21801;DHT22;11062;51.164;16.924;2022-09-03T07:16:27;37.30;31.30
21801;DHT22;11062;51.164;16.924;2022-09-03T07:18:54;37.30;31.10
21801;DHT22;11062;51.164;16.924;2022-09-03T07:21:23;37.30;31.20
21801;DHT22;11062;51.164;16.924;2022-09-03T07:23:50;37.30;30.90
21801;DHT22;11062;51.164;16.924;2022-09-03T07:26:25;37.40;31.30
21801;DHT22;11062;51.164;16.924;2022-09-03T07:28:52;37.40;31.10
21801;DHT22;11062;51.164;16.924;2022-09-03T07:31:23;37.30;31.00
21801;DHT22;11062;51.164;16.924;2022-09-03T07:33:53;37.30;31.20
21801;DHT22;11062;51.164;16.924;2022-09-03T07:36:20;37.30;31.10
21801;DHT22;11062;51.164;16.924;2022-09-03T07:38:47;37.40;31.00
21801;DHT22;11062;51.164;16.924;2022-09-03T07:41:14;37.50;31.50
21801;DHT22;11062;51.164;16.924;2022-09-03T07:43:43;37.60;31.10
21801;DHT22;11062;51.164;16.924;2022-09-03T07:46:12;37.70;31.30
21801;DHT22;11062;51.164;16.924;2022-09-03T07:48:41;37.70;31.10
21801;DHT22;11062;51.164;16.924;2022-09-03T07:51:08;37.80;31.40
21801;DHT22;11062;51.164;16.924;2022-09-03T07:53:35;37.80;31.50
21801;DHT22;11062;51.164;16.924;2022-09-03T07:56:05;37.80;31.50
21801;DHT22;11062;51.164;16.924;2022-09-03T07:58:33;37.90;31.50
21801;DHT22;11062;51.164;16.924;2022-09-03T08:01:04;37.90;31.50
21801;DHT22;11062;51.164;16.924;2022-09-03T08:03:30;38.00;31.30
21801;DHT22;11062;51.164;16.924;2022-09-03T08:06:00;37.90;31.60
21801;DHT22;11062;51.164;16.924;2022-09-03T08:08:26;37.90;31.90
21801;DHT22;11062;51.164;16.924;2022-09-03T08:10:52;37.80;31.70
21801;DHT22;11062;51.164;16.924;2022-09-03T08:13:21;37.90;31.50
21801;DHT22;11062;51.164;16.924;2022-09-03T08:15:54;38.00;31.70
21801;DHT22;11062;51.164;16.924;2022-09-03T08:18:21;38.10;31.90
21801;DHT22;11062;51.164;16.924;2022-09-03T08:20:47;38.20;32.20
21801;DHT22;11062;51.164;16.924;2022-09-03T08:23:14;38.20;32.20
21801;DHT22;11062;51.164;16.924;2022-09-03T08:25:40;38.30;31.90
21801;DHT22;11062;51.164;16.924;2022-09-03T08:28:06;38.10;31.90
21801;DHT22;11062;51.164;16.924;2022-09-03T08:30:32;38.20;32.30
21801;DHT22;11062;51.164;16.924;2022-09-03T08:33:01;38.30;32.30
21801;DHT22;11062;51.164;16.924;2022-09-03T08:35:29;38.50;32.10
21801;DHT22;11062;51.164;16.924;2022-09-03T08:37:56;38.50;31.80
21801;DHT22;11062;51.164;16.924;2022-09-03T08:40:22;38.70;31.60
21801;DHT22;11062;51.164;16.924;2022-09-03T08:45:34;39.00;31.70
21801;DHT22;11062;51.164;16.924;2022-09-03T08:48:11;39.00;31.30
21801;DHT22;11062;51.164;16.924;2022-09-03T08:50:42;39.00;31.90
21801;DHT22;11062;51.164;16.924;2022-09-03T08:53:17;38.70;31.70
21801;DHT22;11062;51.164;16.924;2022-09-03T08:56:02;38.70;31.80
21801;DHT22;11062;51.164;16.924;2022-09-03T08:58:31;38.80;32.20
21801;DHT22;11062;51.164;16.924;2022-09-03T09:14:44;38.60;32.10
21801;DHT22;11062;51.164;16.924;2022-09-03T09:23:02;39.40;32.50
21801;DHT22;11062;51.164;16.924;2022-09-03T09:28:37;39.70;33.00
21801;DHT22;11062;51.164;16.924;2022-09-03T09:31:05;39.60;32.40
21801;DHT22;11062;51.164;16.924;2022-09-03T09:33:33;39.40;33.90
21801;DHT22;11062;51.164;16.924;2022-09-03T09:36:10;39.60;32.80
21801;DHT22;11062;51.164;16.924;2022-09-03T09:38:38;39.80;32.10
21801;DHT22;11062;51.164;16.924;2022-09-03T09:41:22;39.80;34.60
21801;DHT22;11062;51.164;16.924;2022-09-03T09:44:00;39.80;32.50
21801;DHT22;11062;51.164;16.924;2022-09-03T09:46:35;40.00;32.70
21801;DHT22;11062;51.164;16.924;2022-09-03T09:49:02;40.10;33.20
21801;DHT22;11062;51.164;16.924;2022-09-03T09:51:33;40.40;31.60
21801;DHT22;11062;51.164;16.924;2022-09-03T09:54:01;40.70;32.30
21801;DHT22;11062;51.164;16.924;2022-09-03T09:56:27;40.90;31.70
21801;DHT22;11062;51.164;16.924;2022-09-03T09:59:07;40.90;31.00
21801;DHT22;11062;51.164;16.924;2022-09-03T10:01:36;41.00;32.20
21801;DHT22;11062;51.164;16.924;2022-09-03T10:04:10;41.20;30.80
21801;DHT22;11062;51.164;16.924;2022-09-03T10:06:36;41.50;30.60
21801;DHT22;11062;51.164;16.924;2022-09-03T10:09:20;41.70;30.60
21801;DHT22;11062;51.164;16.924;2022-09-03T10:14:52;42.00;30.00
21801;DHT22;11062;51.164;16.924;2022-09-03T10:17:41;42.10;30.00
21801;DHT22;11062;51.164;16.924;2022-09-03T10:23:17;42.60;29.70
21801;DHT22;11062;51.164;16.924;2022-09-03T10:25:59;42.60;31.00
21801;DHT22;11062;51.164;16.924;2022-09-03T10:28:37;42.80;29.60
21801;DHT22;11062;51.164;16.924;2022-09-03T10:31:31;43.10;29.10
21801;DHT22;11062;51.164;16.924;2022-09-03T10:51:31;43.20;28.50
21801;DHT22;11062;51.164;16.924;2022-09-03T10:54:18;43.40;28.20
21801;DHT22;11062;51.164;16.924;2022-09-03T11:08:00;44.50;27.80
21801;DHT22;11062;51.164;16.924;2022-09-03T11:10:30;44.40;28.30
21801;DHT22;11062;51.164;16.924;2022-09-03T11:13:04;44.30;27.00
21801;DHT22;11062;51.164;16.924;2022-09-03T11:15:38;44.40;28.20
21801;DHT22;11062;51.164;16.924;2022-09-03T11:20:52;44.40;27.70
21801;DHT22;11062;51.164;16.924;2022-09-03T11:23:22;44.60;27.20
21801;DHT22;11062;51.164;16.924;2022-09-03T11:25:52;44.20;27.90
21801;DHT22;11062;51.164;16.924;2022-09-03T11:33:20;44.80;27.40
21801;DHT22;11062;51.164;16.924;2022-09-03T11:35:59;44.90;27.10
21801;DHT22;11062;51.164;16.924;2022-09-03T11:38:27;45.10;27.60
21801;DHT22;11062;51.164;16.924;2022-09-03T11:41:12;45.20;27.60
21801;DHT22;11062;51.164;16.924;2022-09-03T11:43:42;45.10;28.60
21801;DHT22;11062;51.164;16.924;2022-09-03T11:48:48;44.90;27.80
21801;DHT22;11062;51.164;16.924;2022-09-03T11:51:39;45.00;27.00
21801;DHT22;11062;51.164;16.924;2022-09-03T11:56:38;44.80;28.30
21801;DHT22;11062;51.164;16.924;2022-09-03T11:59:26;44.70;28.20
21801;DHT22;11062;51.164;16.924;2022-09-03T12:02:11;44.70;27.80
21801;DHT22;11062;51.164;16.924;2022-09-03T12:04:48;44.70;27.60
21801;DHT22;11062;51.164;16.924;2022-09-03T12:07:34;44.50;27.30
21801;DHT22;11062;51.164;16.924;2022-09-03T12:10:10;44.40;28.40
21801;DHT22;11062;51.164;16.924;2022-09-03T12:12:50;44.40;27.40
21801;DHT22;11062;51.164;16.924;2022-09-03T12:18:14;44.20;28.50
21801;DHT22;11062;51.164;16.924;2022-09-03T12:20:46;44.00;27.90
21801;DHT22;11062;51.164;16.924;2022-09-03T12:25:53;44.50;28.60
21801;DHT22;11062;51.164;16.924;2022-09-03T12:28:24;44.90;27.40
21801;DHT22;11062;51.164;16.924;2022-09-03T12:30:51;45.20;26.90
21801;DHT22;11062;51.164;16.924;2022-09-03T12:33:24;45.60;27.40
21801;DHT22;11062;51.164;16.924;2022-09-03T12:39:06;46.40;27.00
21801;DHT22;11062;51.164;16.924;2022-09-03T12:42:18;46.30;27.40
21801;DHT22;11062;51.164;16.924;2022-09-03T12:45:07;46.40;26.70
21801;DHT22;11062;51.164;16.924;2022-09-03T12:47:44;46.40;26.90
21801;DHT22;11062;51.164;16.924;2022-09-03T12:50:31;46.60;26.40
21801;DHT22;11062;51.164;16.924;2022-09-03T12:53:23;46.70;26.50
21801;DHT22;11062;51.164;16.924;2022-09-03T12:56:15;46.70;26.50
21801;DHT22;11062;51.164;16.924;2022-09-03T12:59:06;46.60;26.30
21801;DHT22;11062;51.164;16.924;2022-09-03T13:01:52;46.60;26.80
21801;DHT22;11062;51.164;16.924;2022-09-03T13:04:41;46.10;26.10
21801;DHT22;11062;51.164;16.924;2022-09-03T13:07:39;45.60;27.60
21801;DHT22;11062;51.164;16.924;2022-09-03T13:10:50;45.60;26.90
21801;DHT22;11062;51.164;16.924;2022-09-03T13:21:09;46.20;26.40
21801;DHT22;11062;51.164;16.924;2022-09-03T13:24:24;46.10;26.90
21801;DHT22;11062;51.164;16.924;2022-09-03T13:27:06;46.30;26.50
21801;DHT22;11062;51.164;16.924;2022-09-03T13:29:59;46.30;26.50
21801;DHT22;11062;51.164;16.924;2022-09-03T13:38:32;45.70;26.90
21801;DHT22;11062;51.164;16.924;2022-09-03T13:44:00;45.80;27.10
21801;DHT22;11062;51.164;16.924;2022-09-03T13:53:03;45.30;26.80
21801;DHT22;11062;51.164;16.924;2022-09-03T13:55:42;45.50;26.90
21801;DHT22;11062;51.164;16.924;2022-09-03T13:58:28;45.40;26.40
21801;DHT22;11062;51.164;16.924;2022-09-03T14:03:49;45.40;26.60
21801;DHT22;11062;51.164;16.924;2022-09-03T14:09:22;45.90;26.80
21801;DHT22;11062;51.164;16.924;2022-09-03T14:12:16;46.30;26.50
21801;DHT22;11062;51.164;16.924;2022-09-03T14:15:00;46.30;26.50
21801;DHT22;11062;51.164;16.924;2022-09-03T14:17:40;46.40;26.90
21801;DHT22;11062;51.164;16.924;2022-09-03T14:23:09;46.20;26.10
21801;DHT22;11062;51.164;16.924;2022-09-03T14:26:13;45.90;26.10
21801;DHT22;11062;51.164;16.924;2022-09-03T14:28:56;45.80;26.70
21801;DHT22;11062;51.164;16.924;2022-09-03T14:51:37;44.50;27.90
21801;DHT22;11062;51.164;16.924;2022-09-03T14:57:16;44.50;27.90
21801;DHT22;11062;51.164;16.924;2022-09-03T15:00:04;44.60;28.10
21801;DHT22;11062;51.164;16.924;2022-09-03T15:10:52;44.90;27.80
21801;DHT22;11062;51.164;16.924;2022-09-03T15:30:51;45.60;27.30
21801;DHT22;11062;51.164;16.924;2022-09-03T15:33:34;45.70;27.30
21801;DHT22;11062;51.164;16.924;2022-09-03T15:36:20;45.90;27.30
21801;DHT22;11062;51.164;16.924;2022-09-03T15:39:06;45.90;27.10
21801;DHT22;11062;51.164;16.924;2022-09-03T15:44:37;46.10;26.70
21801;DHT22;11062;51.164;16.924;2022-09-03T15:47:08;45.90;26.90
21801;DHT22;11062;51.164;16.924;2022-09-03T15:49:53;45.90;27.00
21801;DHT22;11062;51.164;16.924;2022-09-03T15:52:47;45.90;26.70
21801;DHT22;11062;51.164;16.924;2022-09-03T15:58:26;45.80;27.10
21801;DHT22;11062;51.164;16.924;2022-09-03T16:01:05;45.80;27.10
21801;DHT22;11062;51.164;16.924;2022-09-03T16:07:08;45.80;27.30
21801;DHT22;11062;51.164;16.924;2022-09-03T16:09:21;45.60;27.30
21801;DHT22;11062;51.164;16.924;2022-09-03T16:14:45;45.60;27.30
21801;DHT22;11062;51.164;16.924;2022-09-03T16:17:27;45.70;27.10
21801;DHT22;11062;51.164;16.924;2022-09-03T16:22:31;45.70;27.40
21801;DHT22;11062;51.164;16.924;2022-09-03T16:25:00;45.70;27.40
21801;DHT22;11062;51.164;16.924;2022-09-03T16:27:57;45.60;27.10
21801;DHT22;11062;51.164;16.924;2022-09-03T16:33:17;45.20;27.60
21801;DHT22;11062;51.164;16.924;2022-09-03T16:42:06;44.80;28.10
21801;DHT22;11062;51.164;16.924;2022-09-03T16:47:47;44.70;28.00
21801;DHT22;11062;51.164;16.924;2022-09-03T16:53:38;44.50;28.00
21801;DHT22;11062;51.164;16.924;2022-09-03T17:01:32;43.60;28.60
21801;DHT22;11062;51.164;16.924;2022-09-03T17:09:23;42.80;29.10
21801;DHT22;11062;51.164;16.924;2022-09-03T17:12:13;42.70;29.10
21801;DHT22;11062;51.164;16.924;2022-09-03T17:18:02;42.20;29.40
21801;DHT22;11062;51.164;16.924;2022-09-03T17:29:20;42.30;29.60
21801;DHT22;11062;51.164;16.924;2022-09-03T17:32:27;42.20;29.70
21801;DHT22;11062;51.164;16.924;2022-09-03T17:43:49;41.60;30.40
21801;DHT22;11062;51.164;16.924;2022-09-03T17:46:49;41.50;30.80
21801;DHT22;11062;51.164;16.924;2022-09-03T17:49:42;41.30;30.80
21801;DHT22;11062;51.164;16.924;2022-09-03T17:52:37;41.20;31.00
21801;DHT22;11062;51.164;16.924;2022-09-03T17:55:28;40.80;31.30
21801;DHT22;11062;51.164;16.924;2022-09-03T18:00:43;40.50;32.00
21801;DHT22;11062;51.164;16.924;2022-09-03T18:03:18;40.50;32.10
21801;DHT22;11062;51.164;16.924;2022-09-03T18:05:45;40.40;32.00
21801;DHT22;11062;51.164;16.924;2022-09-03T18:08:23;40.40;32.30
21801;DHT22;11062;51.164;16.924;2022-09-03T18:11:13;40.30;32.30
21801;DHT22;11062;51.164;16.924;2022-09-03T18:20:31;40.20;32.50
21801;DHT22;11062;51.164;16.924;2022-09-03T18:22:49;40.10;32.40
21801;DHT22;11062;51.164;16.924;2022-09-03T18:25:38;39.90;32.60
21801;DHT22;11062;51.164;16.924;2022-09-03T18:28:39;39.80;32.80
21801;DHT22;11062;51.164;16.924;2022-09-03T18:31:25;39.80;32.80
21801;DHT22;11062;51.164;16.924;2022-09-03T18:34:09;39.70;33.10
21801;DHT22;11062;51.164;16.924;2022-09-03T18:36:57;39.60;33.20
21801;DHT22;11062;51.164;16.924;2022-09-03T18:39:44;39.50;33.20
21801;DHT22;11062;51.164;16.924;2022-09-03T18:58:10;39.10;33.50
21801;DHT22;11062;51.164;16.924;2022-09-03T19:01:10;39.00;33.50
21801;DHT22;11062;51.164;16.924;2022-09-03T19:07:10;38.90;33.70
21801;DHT22;11062;51.164;16.924;2022-09-03T19:10:09;38.80;33.90
21801;DHT22;11062;51.164;16.924;2022-09-03T19:13:32;38.70;34.10
21801;DHT22;11062;51.164;16.924;2022-09-03T19:16:22;38.60;34.00
21801;DHT22;11062;51.164;16.924;2022-09-03T19:22:10;38.50;34.10
21801;DHT22;11062;51.164;16.924;2022-09-03T19:25:04;38.40;34.00
21801;DHT22;11062;51.164;16.924;2022-09-03T19:28:14;38.40;34.10
21801;DHT22;11062;51.164;16.924;2022-09-03T19:37:32;38.20;34.50
21801;DHT22;11062;51.164;16.924;2022-09-03T19:43:30;38.10;34.50
21801;DHT22;11062;51.164;16.924;2022-09-03T19:46:41;38.00;34.40
21801;DHT22;11062;51.164;16.924;2022-09-03T19:55:37;37.90;34.50
21801;DHT22;11062;51.164;16.924;2022-09-03T19:58:23;37.90;34.60
21801;DHT22;11062;51.164;16.924;2022-09-03T20:01:10;37.80;34.60
21801;DHT22;11062;51.164;16.924;2022-09-03T20:03:57;37.80;34.60
21801;DHT22;11062;51.164;16.924;2022-09-03T20:06:44;37.70;34.50
21801;DHT22;11062;51.164;16.924;2022-09-03T20:09:30;37.70;34.80
21801;DHT22;11062;51.164;16.924;2022-09-03T20:12:19;37.60;34.60
21801;DHT22;11062;51.164;16.924;2022-09-03T20:14:47;37.70;34.70
21801;DHT22;11062;51.164;16.924;2022-09-03T20:26:09;37.70;34.70
21801;DHT22;11062;51.164;16.924;2022-09-03T20:29:09;37.70;34.70
21801;DHT22;11062;51.164;16.924;2022-09-03T20:32:19;37.70;34.80
21801;DHT22;11062;51.164;16.924;2022-09-03T20:35:08;37.70;34.60
21801;DHT22;11062;51.164;16.924;2022-09-03T20:37:53;37.70;34.60
21801;DHT22;11062;51.164;16.924;2022-09-03T20:40:33;37.60;34.50
21801;DHT22;11062;51.164;16.924;2022-09-03T20:54:04;37.30;34.90
21801;DHT22;11062;51.164;16.924;2022-09-03T21:05:21;37.20;35.20
21801;DHT22;11062;51.164;16.924;2022-09-03T21:08:24;37.00;35.30
21801;DHT22;11062;51.164;16.924;2022-09-03T21:21:56;36.80;35.20
21801;DHT22;11062;51.164;16.924;2022-09-03T21:24:42;36.90;35.20
21801;DHT22;11062;51.164;16.924;2022-09-03T21:27:20;36.80;34.90
21801;DHT22;11062;51.164;16.924;2022-09-03T21:29:59;36.70;35.00
21801;DHT22;11062;51.164;16.924;2022-09-03T21:32:34;36.70;34.80
21801;DHT22;11062;51.164;16.924;2022-09-03T21:35:29;36.70;34.90
21801;DHT22;11062;51.164;16.924;2022-09-03T21:37:59;36.70;35.00
21801;DHT22;11062;51.164;16.924;2022-09-03T21:40:29;36.70;35.30
21801;DHT22;11062;51.164;16.924;2022-09-03T21:43:20;36.60;35.60
21801;DHT22;11062;51.164;16.924;2022-09-03T21:46:01;36.60;35.60
21801;DHT22;11062;51.164;16.924;2022-09-03T21:48:59;36.60;35.70
21801;DHT22;11062;51.164;16.924;2022-09-03T21:51:30;36.60;35.70
21801;DHT22;11062;51.164;16.924;2022-09-03T21:54:03;36.50;35.60
21801;DHT22;11062;51.164;16.924;2022-09-03T22:04:46;36.40;35.20